sensor_id;sensor_type;location;lat;lon;timestamp;pressure;altitude;pressure_sealevel;temperature;humidity
11672;BME280;5892;43.412;24.612;2023-06-05T00:00:13;100552.31;;;14.10;100.00
11672;BME280;5892;43.412;24.612;2023-06-05T00:02:41;100556.38;;;14.13;100.00
11672;BME280;5892;43.412;24.612;2023-06-05T00:05:08;100549.84;;;14.26;100.00
11672;BME280;5892;43.412;24.612;2023-06-05T00:07:36;100521.19;;;14.18;100.00
11672;BME280;5892;43.412;24.612;2023-06-05T00:10:06;100542.06;;;14.28;100.00
11672;BME280;5892;43.412;24.612;2023-06-05T00:12:33;100545.00;;;14.23;100.00
11672;BME280;5892;43.412;24.612;2023-06-05T00:15:00;100538.50;;;14.19;100.00
11672;BME280;5892;43.412;24.612;2023-06-05T00:17:29;100529.59;;;14.22;100.00
11672;BME280;5892;43.412;24.612;2023-06-05T00:19:58;100536.06;;;14.26;100.00
11672;BME280;5892;43.412;24.612;2023-06-05T00:22:26;100527.16;;;14.37;100.00
11672;BME280;5892;43.412;24.612;2023-06-05T00:24:53;100526.00;;;14.38;100.00
11672;BME280;5892;43.412;24.612;2023-06-05T00:27:23;100532.94;;;14.36;100.00
11672;BME280;5892;43.412;24.612;2023-06-05T00:29:50;100525.66;;;14.31;100.00
11672;BME280;5892;43.412;24.612;2023-06-05T00:32:17;100532.00;;;14.32;100.00
11672;BME280;5892;43.412;24.612;2023-06-05T00:34:44;100524.06;;;14.30;100.00
11672;BME280;5892;43.412;24.612;2023-06-05T00:37:13;100524.22;;;14.25;100.00
11672;BME280;5892;43.412;24.612;2023-06-05T00:39:41;100527.50;;;14.19;100.00
11672;BME280;5892;43.412;24.612;2023-06-05T00:42:08;100524.91;;;14.22;100.00
11672;BME280;5892;43.412;24.612;2023-06-05T00:44:35;100530.88;;;14.24;100.00
11672;BME280;5892;43.412;24.612;2023-06-05T00:47:03;100537.69;;;14.27;100.00
11672;BME280;5892;43.412;24.612;2023-06-05T00:49:31;100527.66;;;14.22;100.00
11672;BME280;5892;43.412;24.612;2023-06-05T00:51:58;100533.66;;;14.16;100.00
11672;BME280;5892;43.412;24.612;2023-06-05T00:54:27;100526.22;;;14.16;100.00
11672;BME280;5892;43.412;24.612;2023-06-05T00:56:55;100525.91;;;14.18;100.00
11672;BME280;5892;43.412;24.612;2023-06-05T00:59:22;100526.72;;;14.10;100.00
11672;BME280;5892;43.412;24.612;2023-06-05T01:01:49;100513.13;;;14.05;100.00
11672;BME280;5892;43.412;24.612;2023-06-05T01:04:17;100529.97;;;14.12;100.00
11672;BME280;5892;43.412;24.612;2023-06-05T01:06:46;100529.19;;;14.03;100.00
11672;BME280;5892;43.412;24.612;2023-06-05T01:09:13;100537.13;;;13.95;100.00
11672;BME280;5892;43.412;24.612;2023-06-05T01:11:45;100518.47;;;13.92;100.00
11672;BME280;5892;43.412;24.612;2023-06-05T01:14:19;100524.16;;;13.96;100.00
11672;BME280;5892;43.412;24.612;2023-06-05T01:16:48;100529.81;;;13.99;100.00
11672;BME280;5892;43.412;24.612;2023-06-05T01:19:17;100529.81;;;13.99;100.00
11672;BME280;5892;43.412;24.612;2023-06-05T01:21:44;100514.78;;;13.97;100.00
11672;BME280;5892;43.412;24.612;2023-06-05T01:24:12;100527.06;;;13.99;100.00
11672;BME280;5892;43.412;24.612;2023-06-05T01:26:47;100522.69;;;13.98;100.00
11672;BME280;5892;43.412;24.612;2023-06-05T01:29:21;100524.97;;;13.96;100.00
11672;BME280;5892;43.412;24.612;2023-06-05T01:31:51;100519.31;;;13.84;100.00
11672;BME280;5892;43.412;24.612;2023-06-05T01:34:22;100522.41;;;13.83;100.00
11672;BME280;5892;43.412;24.612;2023-06-05T01:36:50;100520.63;;;13.78;100.00
11672;BME280;5892;43.412;24.612;2023-06-05T01:39:21;100514.31;;;13.69;100.00
11672;BME280;5892;43.412;24.612;2023-06-05T01:41:50;100519.16;;;13.72;100.00
11672;BME280;5892;43.412;24.612;2023-06-05T01:44:17;100511.88;;;13.68;100.00
11672;BME280;5892;43.412;24.612;2023-06-05T01:46:44;100511.25;;;13.62;100.00
11672;BME280;5892;43.412;24.612;2023-06-05T01:49:11;100488.75;;;13.60;100.00
11672;BME280;5892;43.412;24.612;2023-06-05T01:51:38;100508.19;;;13.64;100.00
11672;BME280;5892;43.412;24.612;2023-06-05T01:54:05;100506.25;;;13.64;100.00
11672;BME280;5892;43.412;24.612;2023-06-05T01:56:34;100506.88;;;13.61;100.00
11672;BME280;5892;43.412;24.612;2023-06-05T01:59:02;100495.06;;;13.61;100.00
11672;BME280;5892;43.412;24.612;2023-06-05T02:01:32;100502.84;;;13.58;100.00
11672;BME280;5892;43.412;24.612;2023-06-05T02:04:00;100499.78;;;13.60;100.00
11672;BME280;5892;43.412;24.612;2023-06-05T02:06:32;100510.44;;;13.62;100.00
11672;BME280;5892;43.412;24.612;2023-06-05T02:09:07;100502.66;;;13.64;100.00
11672;BME280;5892;43.412;24.612;2023-06-05T02:11:36;100502.03;;;13.58;100.00
11672;BME280;5892;43.412;24.612;2023-06-05T02:14:03;100489.56;;;13.61;100.00
11672;BME280;5892;43.412;24.612;2023-06-05T02:16:30;100489.38;;;13.57;100.00
11672;BME280;5892;43.412;24.612;2023-06-05T02:18:57;100485.34;;;13.63;100.00
11672;BME280;5892;43.412;24.612;2023-06-05T02:21:29;100488.75;;;13.60;100.00
11672;BME280;5892;43.412;24.612;2023-06-05T02:23:58;100495.41;;;13.59;100.00
11672;BME280;5892;43.412;24.612;2023-06-05T02:26:25;100490.88;;;13.54;100.00
11672;BME280;5892;43.412;24.612;2023-06-05T02:28:54;100493.13;;;13.52;100.00
11672;BME280;5892;43.412;24.612;2023-06-05T02:31:21;100502.84;;;13.50;100.00
11672;BME280;5892;43.412;24.612;2023-06-05T02:33:51;100496.19;;;13.51;100.00
11672;BME280;5892;43.412;24.612;2023-06-05T02:36:18;100496.53;;;13.58;100.00
11672;BME280;5892;43.412;24.612;2023-06-05T02:38:45;100498.97;;;13.60;100.00
11672;BME280;5892;43.412;24.612;2023-06-05T02:41:15;100497.47;;;13.62;100.00
11672;BME280;5892;43.412;24.612;2023-06-05T02:43:42;100500.22;;;13.62;100.00
11672;BME280;5892;43.412;24.612;2023-06-05T02:46:10;100498.44;;;13.66;100.00
11672;BME280;5892;43.412;24.612;2023-06-05T02:48:37;100499.25;;;13.75;100.00
11672;BME280;5892;43.412;24.612;2023-06-05T02:51:04;100504.75;;;13.84;100.00
11672;BME280;5892;43.412;24.612;2023-06-05T02:53:32;100491.75;;;13.93;100.00
11672;BME280;5892;43.412;24.612;2023-06-05T02:55:59;100495.44;;;14.06;100.00
11672;BME280;5892;43.412;24.612;2023-06-05T02:58:27;100487.44;;;14.21;100.00
11672;BME280;5892;43.412;24.612;2023-06-05T03:00:59;100488.03;;;14.44;100.00
11672;BME280;5892;43.412;24.612;2023-06-05T03:03:30;100483.84;;;14.67;100.00
11672;BME280;5892;43.412;24.612;2023-06-05T03:05:58;100483.22;;;15.12;100.00
11672;BME280;5892;43.412;24.612;2023-06-05T03:08:30;100484.16;;;15.57;100.00
11672;BME280;5892;43.412;24.612;2023-06-05T03:10:58;100483.47;;;15.93;100.00
11672;BME280;5892;43.412;24.612;2023-06-05T03:13:25;100484.31;;;16.30;100.00
11672;BME280;5892;43.412;24.612;2023-06-05T03:15:52;100485.88;;;16.07;100.00
11672;BME280;5892;43.412;24.612;2023-06-05T03:18:23;100482.66;;;15.60;100.00
11672;BME280;5892;43.412;24.612;2023-06-05T03:20:52;100481.09;;;15.50;100.00
11672;BME280;5892;43.412;24.612;2023-06-05T03:23:21;100485.56;;;15.43;100.00
11672;BME280;5892;43.412;24.612;2023-06-05T03:25:48;100482.88;;;15.34;100.00
11672;BME280;5892;43.412;24.612;2023-06-05T03:28:15;100482.94;;;15.46;100.00
11672;BME280;5892;43.412;24.612;2023-06-05T03:30:42;100434.81;;;15.68;100.00
11672;BME280;5892;43.412;24.612;2023-06-05T03:33:09;100479.72;;;16.34;100.00
11672;BME280;5892;43.412;24.612;2023-06-05T03:35:36;100476.47;;;16.93;100.00
11672;BME280;5892;43.412;24.612;2023-06-05T03:38:06;100480.75;;;16.90;100.00
11672;BME280;5892;43.412;24.612;2023-06-05T03:40:33;100489.66;;;16.72;100.00
11672;BME280;5892;43.412;24.612;2023-06-05T03:43:00;100500.72;;;16.60;100.00
11672;BME280;5892;43.412;24.612;2023-06-05T03:45:27;100491.47;;;16.31;100.00
11672;BME280;5892;43.412;24.612;2023-06-05T03:47:54;100499.06;;;16.34;100.00
11672;BME280;5892;43.412;24.612;2023-06-05T03:50:25;100490.41;;;16.24;100.00
11672;BME280;5892;43.412;24.612;2023-06-05T03:52:54;100483.16;;;16.19;100.00
11672;BME280;5892;43.412;24.612;2023-06-05T03:55:29;100483.72;;;16.13;100.00
11672;BME280;5892;43.412;24.612;2023-06-05T03:58:08;100479.69;;;16.10;100.00
11672;BME280;5892;43.412;24.612;2023-06-05T04:00:35;100481.53;;;16.06;100.00
11672;BME280;5892;43.412;24.612;2023-06-05T04:03:02;100482.56;;;16.14;100.00
11672;BME280;5892;43.412;24.612;2023-06-05T04:05:29;100491.78;;;16.18;100.00
11672;BME280;5892;43.412;24.612;2023-06-05T04:07:56;100479.81;;;16.01;100.00
11672;BME280;5892;43.412;24.612;2023-06-05T04:10:23;100479.59;;;16.06;100.00
11672;BME280;5892;43.412;24.612;2023-06-05T04:12:51;100478.19;;;16.13;100.00
11672;BME280;5892;43.412;24.612;2023-06-05T04:15:18;100476.16;;;16.22;100.00
11672;BME280;5892;43.412;24.612;2023-06-05T04:17:45;100472.34;;;16.26;100.00
11672;BME280;5892;43.412;24.612;2023-06-05T04:20:12;100467.38;;;16.20;100.00
11672;BME280;5892;43.412;24.612;2023-06-05T04:22:40;100479.97;;;16.41;100.00
11672;BME280;5892;43.412;24.612;2023-06-05T04:25:07;100469.34;;;16.43;100.00
11672;BME280;5892;43.412;24.612;2023-06-05T04:27:36;100477.19;;;16.53;100.00
11672;BME280;5892;43.412;24.612;2023-06-05T04:30:05;100471.53;;;16.50;100.00
11672;BME280;5892;43.412;24.612;2023-06-05T04:32:32;100483.22;;;16.68;100.00
11672;BME280;5892;43.412;24.612;2023-06-05T04:35:02;100479.97;;;16.66;100.00
11672;BME280;5892;43.412;24.612;2023-06-05T04:37:29;100490.22;;;16.89;100.00
11672;BME280;5892;43.412;24.612;2023-06-05T04:39:56;100484.78;;;16.93;100.00
11672;BME280;5892;43.412;24.612;2023-06-05T04:42:24;100492.38;;;17.08;100.00
11672;BME280;5892;43.412;24.612;2023-06-05T04:44:55;100497.81;;;17.32;100.00
11672;BME280;5892;43.412;24.612;2023-06-05T04:47:23;100491.09;;;17.46;100.00
11672;BME280;5892;43.412;24.612;2023-06-05T04:49:50;100495.75;;;17.69;100.00
11672;BME280;5892;43.412;24.612;2023-06-05T04:52:19;100497.28;;;17.95;100.00
11672;BME280;5892;43.412;24.612;2023-06-05T04:54:46;100500.47;;;17.97;100.00
11672;BME280;5892;43.412;24.612;2023-06-05T04:57:14;100504.69;;;18.06;100.00
11672;BME280;5892;43.412;24.612;2023-06-05T04:59:42;100505.34;;;18.31;100.00
11672;BME280;5892;43.412;24.612;2023-06-05T05:02:11;100506.59;;;18.18;100.00
11672;BME280;5892;43.412;24.612;2023-06-05T05:04:39;100510.97;;;18.35;100.00
11672;BME280;5892;43.412;24.612;2023-06-05T05:07:06;100507.41;;;18.81;100.00
11672;BME280;5892;43.412;24.612;2023-06-05T05:09:38;100508.13;;;19.13;100.00
11672;BME280;5892;43.412;24.612;2023-06-05T05:12:06;100510.72;;;19.41;100.00
11672;BME280;5892;43.412;24.612;2023-06-05T05:14:33;100518.66;;;19.23;100.00
11672;BME280;5892;43.412;24.612;2023-06-05T05:17:03;100517.69;;;18.81;100.00
11672;BME280;5892;43.412;24.612;2023-06-05T05:19:47;100516.97;;;19.19;100.00
11672;BME280;5892;43.412;24.612;2023-06-05T05:22:14;100513.91;;;19.24;100.00
11672;BME280;5892;43.412;24.612;2023-06-05T05:24:42;100526.13;;;19.19;100.00
11672;BME280;5892;43.412;24.612;2023-06-05T05:27:09;100532.91;;;19.22;100.00
11672;BME280;5892;43.412;24.612;2023-06-05T05:29:36;100533.44;;;19.27;100.00
11672;BME280;5892;43.412;24.612;2023-06-05T05:32:04;100523.06;;;19.43;100.00
11672;BME280;5892;43.412;24.612;2023-06-05T05:34:32;100526.09;;;19.54;100.00
11672;BME280;5892;43.412;24.612;2023-06-05T05:37:01;100526.19;;;19.77;100.00
11672;BME280;5892;43.412;24.612;2023-06-05T05:39:29;100530.19;;;19.99;100.00
11672;BME280;5892;43.412;24.612;2023-06-05T05:41:56;100521.28;;;19.70;100.00
11672;BME280;5892;43.412;24.612;2023-06-05T05:44:24;100525.09;;;19.62;100.00
11672;BME280;5892;43.412;24.612;2023-06-05T05:46:51;100531.25;;;19.52;100.00
11672;BME280;5892;43.412;24.612;2023-06-05T05:49:17;100519.22;;;19.48;100.00
11672;BME280;5892;43.412;24.612;2023-06-05T05:51:44;100530.59;;;19.43;100.00
11672;BME280;5892;43.412;24.612;2023-06-05T05:54:12;100536.50;;;19.57;100.00
11672;BME280;5892;43.412;24.612;2023-06-05T05:56:40;100538.25;;;19.46;100.00
11672;BME280;5892;43.412;24.612;2023-06-05T05:59:07;100518.13;;;19.72;100.00
11672;BME280;5892;43.412;24.612;2023-06-05T06:01:34;100520.84;;;19.87;100.00
11672;BME280;5892;43.412;24.612;2023-06-05T06:04:02;100528.28;;;20.03;100.00
11672;BME280;5892;43.412;24.612;2023-06-05T06:06:29;100537.63;;;19.95;100.00
11672;BME280;5892;43.412;24.612;2023-06-05T06:08:56;100536.16;;;20.01;100.00
11672;BME280;5892;43.412;24.612;2023-06-05T06:11:24;100533.56;;;19.88;100.00
11672;BME280;5892;43.412;24.612;2023-06-05T06:13:52;100528.69;;;20.05;100.00
11672;BME280;5892;43.412;24.612;2023-06-05T06:16:19;100515.56;;;20.24;100.00
11672;BME280;5892;43.412;24.612;2023-06-05T06:18:45;100504.28;;;20.63;100.00
11672;BME280;5892;43.412;24.612;2023-06-05T06:21:12;100510.38;;;21.21;100.00
11672;BME280;5892;43.412;24.612;2023-06-05T06:23:39;100513.22;;;20.98;100.00
11672;BME280;5892;43.412;24.612;2023-06-05T06:26:06;100508.66;;;21.43;100.00
11672;BME280;5892;43.412;24.612;2023-06-05T06:28:35;100508.91;;;21.61;100.00
11672;BME280;5892;43.412;24.612;2023-06-05T06:31:01;100497.56;;;21.80;100.00
11672;BME280;5892;43.412;24.612;2023-06-05T06:33:28;100506.75;;;21.80;99.03
11672;BME280;5892;43.412;24.612;2023-06-05T06:35:55;100512.34;;;22.17;98.19
11672;BME280;5892;43.412;24.612;2023-06-05T06:38:23;100511.38;;;22.39;96.56
11672;BME280;5892;43.412;24.612;2023-06-05T06:40:55;100513.09;;;22.58;83.34
11672;BME280;5892;43.412;24.612;2023-06-05T06:43:22;100510.50;;;22.35;84.16
11672;BME280;5892;43.412;24.612;2023-06-05T06:45:51;100522.84;;;22.71;82.74
11672;BME280;5892;43.412;24.612;2023-06-05T06:48:19;100519.84;;;22.54;84.04
11672;BME280;5892;43.412;24.612;2023-06-05T06:50:46;100520.22;;;22.96;80.77
11672;BME280;5892;43.412;24.612;2023-06-05T06:53:13;100503.78;;;23.53;79.87
11672;BME280;5892;43.412;24.612;2023-06-05T06:55:40;100497.09;;;23.93;78.40
11672;BME280;5892;43.412;24.612;2023-06-05T06:58:07;100502.22;;;23.66;78.60
11672;BME280;5892;43.412;24.612;2023-06-05T07:00:34;100507.03;;;23.76;79.06
11672;BME280;5892;43.412;24.612;2023-06-05T07:03:02;100488.25;;;23.70;79.22
11672;BME280;5892;43.412;24.612;2023-06-05T07:05:30;100494.34;;;24.07;78.66
11672;BME280;5892;43.412;24.612;2023-06-05T07:07:56;100504.00;;;24.45;77.97
11672;BME280;5892;43.412;24.612;2023-06-05T07:10:27;100499.22;;;24.70;76.95
11672;BME280;5892;43.412;24.612;2023-06-05T07:12:54;100487.59;;;24.58;78.41
11672;BME280;5892;43.412;24.612;2023-06-05T07:15:21;100491.56;;;24.81;76.59
11672;BME280;5892;43.412;24.612;2023-06-05T07:17:47;100480.34;;;25.10;76.14
11672;BME280;5892;43.412;24.612;2023-06-05T07:20:16;100482.25;;;25.30;75.78
11672;BME280;5892;43.412;24.612;2023-06-05T07:22:44;100484.78;;;24.61;79.95
11672;BME280;5892;43.412;24.612;2023-06-05T07:25:11;100482.00;;;24.33;82.11
11672;BME280;5892;43.412;24.612;2023-06-05T07:27:41;100484.72;;;23.90;84.07
11672;BME280;5892;43.412;24.612;2023-06-05T07:30:11;100492.78;;;24.24;83.28
11672;BME280;5892;43.412;24.612;2023-06-05T07:32:39;100482.78;;;24.51;82.32
11672;BME280;5892;43.412;24.612;2023-06-05T07:35:08;100481.19;;;24.57;81.45
11672;BME280;5892;43.412;24.612;2023-06-05T07:37:36;100480.38;;;24.60;81.35
11672;BME280;5892;43.412;24.612;2023-06-05T07:40:04;100476.34;;;24.12;84.11
11672;BME280;5892;43.412;24.612;2023-06-05T07:42:31;100471.94;;;24.14;84.21
11672;BME280;5892;43.412;24.612;2023-06-05T07:44:58;100468.31;;;23.85;85.13
11672;BME280;5892;43.412;24.612;2023-06-05T07:47:25;100461.59;;;24.22;85.25
11672;BME280;5892;43.412;24.612;2023-06-05T07:49:58;100462.38;;;24.65;83.19
11672;BME280;5892;43.412;24.612;2023-06-05T07:52:25;100441.56;;;24.59;82.69
11672;BME280;5892;43.412;24.612;2023-06-05T07:54:55;100458.34;;;24.76;82.47
11672;BME280;5892;43.412;24.612;2023-06-05T07:57:23;100457.59;;;24.37;83.32
11672;BME280;5892;43.412;24.612;2023-06-05T07:59:50;100456.41;;;24.38;84.48
11672;BME280;5892;43.412;24.612;2023-06-05T08:02:19;100455.19;;;24.21;84.91
11672;BME280;5892;43.412;24.612;2023-06-05T08:04:48;100466.78;;;24.20;86.50
11672;BME280;5892;43.412;24.612;2023-06-05T08:07:15;100460.75;;;24.07;87.33
11672;BME280;5892;43.412;24.612;2023-06-05T08:09:42;100462.31;;;24.08;85.09
11672;BME280;5892;43.412;24.612;2023-06-05T08:12:10;100469.56;;;24.16;85.72
11672;BME280;5892;43.412;24.612;2023-06-05T08:14:37;100464.00;;;24.27;84.55
11672;BME280;5892;43.412;24.612;2023-06-05T08:17:04;100463.19;;;24.26;84.45
11672;BME280;5892;43.412;24.612;2023-06-05T08:19:31;100459.19;;;24.38;83.40
11672;BME280;5892;43.412;24.612;2023-06-05T08:21:58;100464.78;;;24.24;85.53
11672;BME280;5892;43.412;24.612;2023-06-05T08:24:24;100462.38;;;24.51;83.42
11672;BME280;5892;43.412;24.612;2023-06-05T08:26:53;100466.78;;;24.34;83.08
11672;BME280;5892;43.412;24.612;2023-06-05T08:29:26;100476.78;;;24.21;82.28
11672;BME280;5892;43.412;24.612;2023-06-05T08:32:02;100463.19;;;24.23;82.25
11672;BME280;5892;43.412;24.612;2023-06-05T08:34:30;100461.94;;;24.13;83.23
11672;BME280;5892;43.412;24.612;2023-06-05T08:36:58;100449.53;;;24.00;82.11
11672;BME280;5892;43.412;24.612;2023-06-05T08:39:25;100458.31;;;23.98;83.12
11672;BME280;5892;43.412;24.612;2023-06-05T08:41:57;100438.28;;;23.68;80.74
11672;BME280;5892;43.412;24.612;2023-06-05T08:44:28;100464.31;;;24.07;80.03
11672;BME280;5892;43.412;24.612;2023-06-05T08:47:00;100455.97;;;24.29;80.00
11672;BME280;5892;43.412;24.612;2023-06-05T08:49:28;100450.38;;;24.43;80.73
11672;BME280;5892;43.412;24.612;2023-06-05T08:52:01;100460.78;;;24.25;79.81
11672;BME280;5892;43.412;24.612;2023-06-05T08:54:33;100468.31;;;23.96;80.15
11672;BME280;5892;43.412;24.612;2023-06-05T08:57:03;100449.94;;;23.91;79.58
11672;BME280;5892;43.412;24.612;2023-06-05T08:59:33;100459.53;;;24.04;79.64
11672;BME280;5892;43.412;24.612;2023-06-05T09:02:00;100458.72;;;24.00;79.56
11672;BME280;5892;43.412;24.612;2023-06-05T09:04:28;100453.56;;;24.24;79.23
11672;BME280;5892;43.412;24.612;2023-06-05T09:06:56;100453.56;;;24.34;77.08
11672;BME280;5892;43.412;24.612;2023-06-05T09:09:24;100467.97;;;24.19;75.07
11672;BME280;5892;43.412;24.612;2023-06-05T09:12:01;100464.31;;;24.04;73.96
11672;BME280;5892;43.412;24.612;2023-06-05T09:14:28;100472.31;;;23.98;75.59
11672;BME280;5892;43.412;24.612;2023-06-05T09:16:58;100461.50;;;23.93;76.69
11672;BME280;5892;43.412;24.612;2023-06-05T09:19:35;100469.53;;;23.95;78.38
11672;BME280;5892;43.412;24.612;2023-06-05T09:22:03;100465.50;;;23.92;75.14
11672;BME280;5892;43.412;24.612;2023-06-05T09:24:30;100462.31;;;24.08;75.42
11672;BME280;5892;43.412;24.612;2023-06-05T09:26:59;100471.19;;;24.35;72.14
11672;BME280;5892;43.412;24.612;2023-06-05T09:29:27;100476.81;;;24.49;72.41
11672;BME280;5892;43.412;24.612;2023-06-05T09:31:56;100444.75;;;24.68;71.50
11672;BME280;5892;43.412;24.612;2023-06-05T09:34:26;100461.97;;;24.87;72.97
11672;BME280;5892;43.412;24.612;2023-06-05T09:36:56;100453.53;;;24.84;67.69
11672;BME280;5892;43.412;24.612;2023-06-05T09:39:23;100460.75;;;24.67;70.49
11672;BME280;5892;43.412;24.612;2023-06-05T09:41:54;100472.78;;;24.68;68.47
11672;BME280;5892;43.412;24.612;2023-06-05T09:44:22;100457.16;;;24.70;65.64
11672;BME280;5892;43.412;24.612;2023-06-05T09:46:59;100446.34;;;24.65;58.73
11672;BME280;5892;43.412;24.612;2023-06-05T09:49:29;100448.38;;;24.54;61.82
11672;BME280;5892;43.412;24.612;2023-06-05T09:51:57;100450.38;;;24.64;55.36
11672;BME280;5892;43.412;24.612;2023-06-05T09:54:27;100444.75;;;24.75;53.39
11672;BME280;5892;43.412;24.612;2023-06-05T09:56:58;100445.13;;;24.80;54.59
11672;BME280;5892;43.412;24.612;2023-06-05T09:59:30;100445.50;;;25.00;56.81
11672;BME280;5892;43.412;24.612;2023-06-05T10:02:00;100441.81;;;25.24;54.79
11672;BME280;5892;43.412;24.612;2023-06-05T10:04:35;100470.16;;;25.51;54.97
11672;BME280;5892;43.412;24.612;2023-06-05T10:07:07;100453.44;;;25.26;59.58
11672;BME280;5892;43.412;24.612;2023-06-05T10:09:35;100451.34;;;25.45;59.95
11672;BME280;5892;43.412;24.612;2023-06-05T10:12:04;100442.91;;;25.59;53.84
11672;BME280;5892;43.412;24.612;2023-06-05T10:14:33;100440.38;;;25.79;55.97
11672;BME280;5892;43.412;24.612;2023-06-05T10:17:01;100432.97;;;26.02;55.27
11672;BME280;5892;43.412;24.612;2023-06-05T10:19:31;100445.00;;;26.03;55.49
11672;BME280;5892;43.412;24.612;2023-06-05T10:21:58;100448.22;;;26.05;54.23
11672;BME280;5892;43.412;24.612;2023-06-05T10:24:28;100434.22;;;25.98;54.37
11672;BME280;5892;43.412;24.612;2023-06-05T10:27:18;100446.25;;;25.98;54.79
11672;BME280;5892;43.412;24.612;2023-06-05T10:33:02;100427.97;;;25.72;57.71
11672;BME280;5892;43.412;24.612;2023-06-05T10:35:45;100424.06;;;25.56;57.70
11672;BME280;5892;43.412;24.612;2023-06-05T10:38:18;100421.44;;;25.17;56.98
11672;BME280;5892;43.412;24.612;2023-06-05T10:40:48;100418.19;;;25.18;56.42
11672;BME280;5892;43.412;24.612;2023-06-05T10:43:24;100409.38;;;25.20;55.17
11672;BME280;5892;43.412;24.612;2023-06-05T10:45:52;100414.94;;;25.30;57.31
11672;BME280;5892;43.412;24.612;2023-06-05T10:48:19;100420.47;;;25.48;56.77
11672;BME280;5892;43.412;24.612;2023-06-05T10:50:47;100409.16;;;25.66;54.65
11672;BME280;5892;43.412;24.612;2023-06-05T10:53:42;100422.69;;;25.82;53.80
11672;BME280;5892;43.412;24.612;2023-06-05T10:59:14;100412.34;;;25.71;50.98
11672;BME280;5892;43.412;24.612;2023-06-05T11:01:42;100389.19;;;25.53;51.68
11672;BME280;5892;43.412;24.612;2023-06-05T11:04:09;100414.63;;;25.91;49.68
11672;BME280;5892;43.412;24.612;2023-06-05T11:06:38;100398.19;;;25.89;49.91
11672;BME280;5892;43.412;24.612;2023-06-05T11:09:12;100414.28;;;25.82;49.27
11672;BME280;5892;43.412;24.612;2023-06-05T11:11:59;100407.19;;;25.63;50.29
11672;BME280;5892;43.412;24.612;2023-06-05T11:14:43;100395.22;;;25.48;51.78
11672;BME280;5892;43.412;24.612;2023-06-05T11:17:26;100395.59;;;25.50;51.71
11672;BME280;5892;43.412;24.612;2023-06-05T11:19:52;100408.41;;;25.55;48.41
11672;BME280;5892;43.412;24.612;2023-06-05T11:22:21;100393.22;;;25.45;49.63
11672;BME280;5892;43.412;24.612;2023-06-05T11:25:24;100384.78;;;25.56;48.54
11672;BME280;5892;43.412;24.612;2023-06-05T11:27:53;100389.16;;;25.60;48.98
11672;BME280;5892;43.412;24.612;2023-06-05T11:30:21;100391.53;;;25.69;48.94
11672;BME280;5892;43.412;24.612;2023-06-05T11:32:49;100396.72;;;25.70;47.71
11672;BME280;5892;43.412;24.612;2023-06-05T11:35:20;100401.56;;;25.66;48.30
11672;BME280;5892;43.412;24.612;2023-06-05T11:37:49;100399.06;;;25.76;49.09
11672;BME280;5892;43.412;24.612;2023-06-05T11:40:24;100399.44;;;25.81;49.91
11672;BME280;5892;43.412;24.612;2023-06-05T11:42:51;100306.84;;;25.15;51.18
11672;BME280;5892;43.412;24.612;2023-06-05T11:45:18;100395.00;;;25.91;50.77
11672;BME280;5892;43.412;24.612;2023-06-05T11:47:45;100387.38;;;25.88;51.42
11672;BME280;5892;43.412;24.612;2023-06-05T11:50:13;100378.38;;;26.07;50.66
11672;BME280;5892;43.412;24.612;2023-06-05T11:52:42;100385.97;;;26.13;50.67
11672;BME280;5892;43.412;24.612;2023-06-05T11:55:14;100375.78;;;25.82;46.91
11672;BME280;5892;43.412;24.612;2023-06-05T11:57:42;100394.53;;;25.96;47.92
11672;BME280;5892;43.412;24.612;2023-06-05T12:00:10;100385.84;;;25.80;49.03
11672;BME280;5892;43.412;24.612;2023-06-05T12:02:38;100375.25;;;25.98;49.41
11672;BME280;5892;43.412;24.612;2023-06-05T12:05:06;100375.94;;;26.12;46.52
11672;BME280;5892;43.412;24.612;2023-06-05T12:07:33;100381.91;;;26.18;45.34
11672;BME280;5892;43.412;24.612;2023-06-05T12:10:02;100372.66;;;26.21;45.66
11672;BME280;5892;43.412;24.612;2023-06-05T12:12:32;100367.50;;;26.12;47.90
11672;BME280;5892;43.412;24.612;2023-06-05T12:15:13;100377.16;;;26.11;48.77
11672;BME280;5892;43.412;24.612;2023-06-05T12:17:40;100365.50;;;26.13;49.92
11672;BME280;5892;43.412;24.612;2023-06-05T12:20:08;100368.38;;;26.06;49.78
11672;BME280;5892;43.412;24.612;2023-06-05T12:22:35;100367.03;;;26.25;48.51
11672;BME280;5892;43.412;24.612;2023-06-05T12:25:14;100357.31;;;26.33;46.60
11672;BME280;5892;43.412;24.612;2023-06-05T12:27:43;100343.25;;;26.36;45.20
11672;BME280;5892;43.412;24.612;2023-06-05T12:30:11;100349.56;;;26.44;45.95
11672;BME280;5892;43.412;24.612;2023-06-05T12:32:39;100354.41;;;26.43;45.25
11672;BME280;5892;43.412;24.612;2023-06-05T12:35:17;100351.22;;;26.41;45.23
11672;BME280;5892;43.412;24.612;2023-06-05T12:37:45;100351.69;;;26.36;46.37
11672;BME280;5892;43.412;24.612;2023-06-05T12:40:13;100346.41;;;26.42;46.35
11672;BME280;5892;43.412;24.612;2023-06-05T12:42:47;100361.56;;;26.51;46.15
11672;BME280;5892;43.412;24.612;2023-06-05T12:45:14;100348.78;;;26.43;46.26
11672;BME280;5892;43.412;24.612;2023-06-05T12:47:42;100348.81;;;26.40;45.16
11672;BME280;5892;43.412;24.612;2023-06-05T12:50:10;100337.13;;;26.45;45.68
11672;BME280;5892;43.412;24.612;2023-06-05T12:52:37;100338.34;;;26.44;46.27
11672;BME280;5892;43.412;24.612;2023-06-05T12:55:05;100308.06;;;26.21;47.39
11672;BME280;5892;43.412;24.612;2023-06-05T12:57:34;100336.53;;;26.27;47.93
11672;BME280;5892;43.412;24.612;2023-06-05T13:00:05;100332.41;;;26.35;48.88